Terminal Aerodrome Forecast
Issued by NWS Lake Charles, LA

Home | Current Version | Previous Version | Text Only | Print | Product List | Glossary On
Versions: 1 2 3 4 5 6 7 8 9 10 11 12
000
FTUS44 KLCH 041734
TAFLCH
TAF
KLCH 041734Z 0418/0518 10010KT P6SM SCT045
     FM050300 12010KT P6SM SCT027 BKN040
     FM051200 11012KT P6SM BKN027
     FM051600 13015G20KT P6SM VCSH BKN035=

USA.gov is the U.S. government's official web portal to all federal, state and local government web resources and services.